Time;durP1;ratioP1;P1;durP2;ratioP2;P2;SDS_P1;SDS_P2;PMS_P1;PMS_P2;Temp;Humidity;BMP_temperature;BMP_pressure;BME280_temperature;BME280_humidity;BME280_pressure;Samples;Min_cycle;Max_cycle;Signal;HPM_P1;HPM_P2
2022/04/15 00:02:09;;;;;;;13.98;6.75;;;6.80;99.90;;;;;;5115483;28;20040;-79
2022/04/15 00:04:36;;;;;;;15.20;6.88;;;6.80;99.90;;;;;;5115564;28;20086;-77
2022/04/15 00:07:02;;;;;;;8.32;5.70;;;6.70;99.90;;;;;;5115555;28;20096;-77
2022/04/15 00:09:30;;;;;;;10.17;6.07;;;6.70;99.90;;;;;;5115499;28;20090;-77
2022/04/15 00:11:56;;;;;;;13.38;5.35;;;6.70;99.90;;;;;;5115456;28;20395;-77
2022/04/15 00:14:22;;;;;;;14.93;5.97;;;6.60;99.90;;;;;;5115458;28;20050;-76
2022/04/15 00:16:48;;;;;;;10.40;5.97;;;6.60;99.90;;;;;;5114312;28;20039;-76
2022/04/15 00:19:14;;;;;;;12.60;5.72;;;6.60;99.90;;;;;;5115294;28;20092;-77
2022/04/15 00:21:40;;;;;;;13.57;5.63;;;6.50;99.90;;;;;;5115262;28;20126;-75
2022/04/15 00:24:06;;;;;;;10.50;5.43;;;6.50;99.90;;;;;;5115187;28;20048;-79
2022/04/15 00:26:32;;;;;;;11.02;6.25;;;6.50;99.90;;;;;;5115205;28;20119;-76
2022/04/15 00:28:58;;;;;;;13.68;5.93;;;6.30;99.90;;;;;;5114086;28;20124;-78
2022/04/15 00:31:23;;;;;;;10.23;5.53;;;6.30;99.90;;;;;;5115099;28;20046;-77
2022/04/15 00:33:49;;;;;;;8.88;6.03;;;6.30;99.90;;;;;;5114884;28;20039;-80
2022/04/15 00:36:15;;;;;;;9.98;6.15;;;6.30;99.90;;;;;;5115013;28;20468;-79
2022/04/15 00:38:40;;;;;;;7.68;5.10;;;6.30;99.90;;;;;;5115239;28;20130;-77
2022/04/15 00:41:06;;;;;;;12.43;5.75;;;6.20;99.90;;;;;;5114865;28;20122;-79
2022/04/15 00:43:32;;;;;;;9.35;5.55;;;6.10;99.90;;;;;;5114883;28;20081;-76
2022/04/15 00:46:06;;;;;;;8.77;5.40;;;6.10;99.90;;;;;;5114678;28;20054;-78
2022/04/15 00:48:32;;;;;;;13.52;6.03;;;6.10;99.90;;;;;;5115326;28;20092;-76
2022/04/15 00:50:57;;;;;;;12.73;5.75;;;6.00;99.90;;;;;;5114743;28;20609;-76
2022/04/15 00:53:25;;;;;;;18.77;6.38;;;6.00;99.90;;;;;;5114591;28;20151;-78
2022/04/15 00:55:57;;;;;;;11.25;6.10;;;6.00;99.90;;;;;;5114625;28;20079;-77
2022/04/15 00:58:24;;;;;;;9.20;5.90;;;6.00;99.90;;;;;;5114410;28;20407;-79
2022/04/15 01:00:54;;;;;;;11.20;5.40;;;5.90;99.90;;;;;;5114485;28;20044;-79
2022/04/15 01:03:23;;;;;;;11.15;6.80;;;5.90;99.90;;;;;;5114506;28;20050;-78
2022/04/15 01:05:52;;;;;;;12.48;5.60;;;5.80;99.90;;;;;;5114518;28;20047;-76
2022/04/15 01:08:22;;;;;;;10.40;6.07;;;5.80;99.90;;;;;;5114277;27;20044;-79
2022/04/15 01:10:48;;;;;;;10.48;5.15;;;5.80;99.90;;;;;;5114336;28;20051;-79
2022/04/15 01:13:14;;;;;;;11.07;6.77;;;5.70;99.90;;;;;;5114232;28;20088;-79
2022/04/15 01:15:40;;;;;;;10.52;5.90;;;5.70;99.90;;;;;;5114783;28;20281;-80
2022/04/15 01:18:07;;;;;;;8.65;5.30;;;5.70;99.90;;;;;;5114327;28;20054;-78
2022/04/15 01:20:32;;;;;;;11.77;6.97;;;5.70;99.90;;;;;;5114332;28;20048;-78
2022/04/15 01:23:10;;;;;;;9.40;5.68;;;5.80;99.90;;;;;;5114391;28;20055;-78
2022/04/15 01:25:36;;;;;;;18.33;7.10;;;5.80;99.90;;;;;;5114282;28;20036;-77
2022/04/15 01:28:03;;;;;;;9.90;5.73;;;5.80;99.90;;;;;;5114364;28;20039;-80
2022/04/15 01:30:28;;;;;;;11.53;5.70;;;5.90;99.90;;;;;;5113360;28;20051;-77
2022/04/15 01:32:54;;;;;;;16.90;6.88;;;5.90;99.90;;;;;;5114297;28;20084;-78
2022/04/15 01:35:20;;;;;;;12.15;7.22;;;6.00;99.90;;;;;;5114340;28;20042;-78
2022/04/15 01:37:47;;;;;;;13.50;6.50;;;6.10;99.90;;;;;;5114142;28;20142;-80
2022/04/15 01:40:15;;;;;;;10.77;6.57;;;6.10;99.90;;;;;;5114924;28;20044;-77
2022/04/15 01:42:43;;;;;;;12.32;6.65;;;6.20;99.90;;;;;;5119026;28;20036;-78
2022/04/15 01:45:10;;;;;;;15.13;7.13;;;6.30;99.90;;;;;;5118231;28;20152;-79
2022/04/15 01:47:36;;;;;;;11.90;6.70;;;6.20;99.90;;;;;;5118233;28;20475;-80
2022/04/15 01:50:06;;;;;;;17.15;7.28;;;6.40;99.90;;;;;;5118169;28;20055;-77
2022/04/15 01:52:31;;;;;;;13.55;6.68;;;6.40;99.90;;;;;;5118377;28;20439;-76
2022/04/15 01:54:57;;;;;;;13.82;6.93;;;6.40;99.90;;;;;;5117967;28;20134;-80
2022/04/15 01:57:23;;;;;;;17.27;7.40;;;6.50;99.90;;;;;;5118023;28;20048;-77
2022/04/15 01:59:48;;;;;;;11.23;6.90;;;6.50;99.90;;;;;;5117885;28;20372;-79
2022/04/15 02:02:14;;;;;;;16.85;7.30;;;6.60;99.90;;;;;;5118243;28;20157;-77
2022/04/15 02:04:40;;;;;;;15.65;7.35;;;6.50;99.90;;;;;;5117916;28;20051;-77
2022/04/15 02:07:05;;;;;;;13.57;7.65;;;6.50;99.90;;;;;;5118086;28;20040;-77
2022/04/15 02:09:31;;;;;;;15.13;6.90;;;6.60;99.90;;;;;;5117812;28;20498;-78
2022/04/15 02:11:57;;;;;;;10.32;7.50;;;6.60;99.90;;;;;;5117910;28;20051;-79
2022/04/15 02:14:23;;;;;;;12.73;7.43;;;6.70;99.90;;;;;;5117504;28;20511;-77
2022/04/15 02:16:52;;;;;;;9.15;6.63;;;6.70;99.90;;;;;;5117613;28;20325;-78
2022/04/15 02:19:17;;;;;;;10.23;7.28;;;6.80;99.90;;;;;;5117693;28;20043;-77
2022/04/15 02:21:43;;;;;;;12.77;7.07;;;6.80;99.90;;;;;;5117611;28;20043;-79
2022/04/15 02:24:08;;;;;;;9.88;6.93;;;6.70;99.90;;;;;;5117503;28;20118;-78
2022/04/15 02:26:34;;;;;;;12.35;7.00;;;6.80;99.90;;;;;;5117498;28;20046;-78
2022/04/15 02:29:00;;;;;;;14.48;6.70;;;6.80;99.90;;;;;;5116671;28;20047;-78
2022/04/15 02:31:26;;;;;;;10.02;5.80;;;6.80;99.90;;;;;;5117476;28;20043;-78
2022/04/15 02:33:52;;;;;;;13.23;6.23;;;6.80;99.90;;;;;;5117354;27;20115;-78
2022/04/15 02:36:18;;;;;;;11.10;6.32;;;6.80;99.90;;;;;;5117342;28;20487;-78
2022/04/15 02:38:44;;;;;;;11.90;6.00;;;6.80;99.90;;;;;;5117429;28;20096;-79
2022/04/15 02:41:10;;;;;;;15.15;6.32;;;6.90;99.90;;;;;;5117223;28;20130;-78
2022/04/15 02:43:38;;;;;;;11.30;6.50;;;6.90;99.90;;;;;;5117245;28;20050;-80
2022/04/15 02:46:06;;;;;;;13.07;7.00;;;6.90;99.90;;;;;;5117141;27;20494;-77
2022/04/15 02:48:32;;;;;;;17.77;7.20;;;6.90;99.90;;;;;;5115964;28;20047;-76
2022/04/15 02:50:59;;;;;;;11.32;5.93;;;7.00;99.90;;;;;;5116818;28;20479;-79
2022/04/15 02:53:25;;;;;;;12.30;6.95;;;7.00;99.90;;;;;;5116102;28;20036;-77
2022/04/15 02:55:50;;;;;;;11.32;6.60;;;7.00;99.90;;;;;;5116961;28;20055;-78
2022/04/15 02:58:16;;;;;;;13.18;6.57;;;7.00;99.90;;;;;;5116930;28;20044;-80
2022/04/15 03:00:42;;;;;;;15.10;6.35;;;7.00;99.90;;;;;;5117166;28;20044;-78
2022/04/15 03:03:08;;;;;;;11.68;6.82;;;7.00;99.90;;;;;;5116934;28;20445;-79
2022/04/15 03:05:33;;;;;;;10.93;6.00;;;7.10;99.90;;;;;;5115831;28;20114;-78
2022/04/15 03:07:59;;;;;;;11.93;6.65;;;7.10;99.90;;;;;;5116703;28;20055;-76
2022/04/15 03:10:25;;;;;;;11.50;6.35;;;7.10;99.90;;;;;;5116533;28;20387;-79
2022/04/15 03:12:50;;;;;;;10.82;5.85;;;7.10;99.90;;;;;;5116947;28;20043;-76
2022/04/15 03:15:17;;;;;;;12.32;6.55;;;7.10;99.90;;;;;;5116591;28;20111;-76
2022/04/15 03:17:42;;;;;;;12.68;6.80;;;7.10;99.90;;;;;;5116561;28;20040;-78
2022/04/15 03:20:09;;;;;;;11.07;6.32;;;7.20;99.90;;;;;;5116257;28;20188;-77
2022/04/15 03:22:39;;;;;;;13.50;5.95;;;7.20;99.90;;;;;;5116456;28;20505;-78
2022/04/15 03:25:06;;;;;;;13.50;6.28;;;7.20;99.90;;;;;;5116871;28;20447;-80
2022/04/15 03:27:32;;;;;;;;;;;7.20;99.90;;;;;;5116612;28;20140;-78
2022/04/15 03:29:58;;;;;;;9.98;5.72;;;7.20;99.90;;;;;;5116310;28;19974;-78
2022/04/15 03:32:24;;;;;;;12.07;6.00;;;7.20;99.90;;;;;;5116219;28;20046;-79
2022/04/15 03:34:52;;;;;;;12.38;6.32;;;7.20;99.90;;;;;;5116426;28;20043;-77
2022/04/15 03:37:18;;;;;;;11.88;6.40;;;7.20;99.90;;;;;;5116172;28;20055;-79
2022/04/15 03:39:43;;;;;;;12.30;6.18;;;7.20;99.90;;;;;;5116825;28;20042;-77
2022/04/15 03:42:09;;;;;;;9.27;6.20;;;7.20;99.90;;;;;;5116351;28;20044;-78
2022/04/15 03:44:36;;;;;;;11.25;6.78;;;7.20;99.90;;;;;;5114725;28;20047;-79
2022/04/15 03:47:02;;;;;;;15.25;6.32;;;7.20;99.90;;;;;;5116040;28;20043;-78
2022/04/15 03:49:28;;;;;;;9.30;5.60;;;7.20;99.90;;;;;;5115963;28;20059;-78
2022/04/15 03:51:53;;;;;;;11.18;6.97;;;7.30;99.90;;;;;;5114889;28;20047;-77
2022/04/15 03:54:19;;;;;;;15.63;6.55;;;7.30;99.90;;;;;;5115530;28;20522;-78
2022/04/15 03:56:46;;;;;;;9.15;6.05;;;7.30;99.90;;;;;;5115778;28;20039;-80
2022/04/15 03:59:12;;;;;;;14.25;5.85;;;7.40;99.90;;;;;;5115709;28;20460;-79
2022/04/15 04:01:38;;;;;;;8.43;5.97;;;7.30;99.90;;;;;;5114875;28;20048;-79
2022/04/15 04:04:04;;;;;;;12.93;6.38;;;7.40;99.90;;;;;;5115557;28;20482;-78
2022/04/15 04:06:29;;;;;;;10.75;6.25;;;7.40;99.90;;;;;;5115581;28;20047;-78
2022/04/15 04:08:55;;;;;;;10.70;5.80;;;7.40;99.90;;;;;;5115467;28;20048;-77
2022/04/15 04:11:21;;;;;;;11.50;6.78;;;7.40;99.90;;;;;;5115867;28;20048;-79
2022/04/15 04:13:47;;;;;;;10.73;6.30;;;7.40;99.90;;;;;;5115730;28;20036;-78
2022/04/15 04:16:13;;;;;;;10.18;6.32;;;7.40;99.90;;;;;;5115672;28;20043;-79
2022/04/15 04:18:39;;;;;;;11.88;6.30;;;7.40;99.90;;;;;;5115381;28;20086;-78
2022/04/15 04:21:05;;;;;;;9.82;6.25;;;7.40;99.90;;;;;;5115405;28;20043;-77
2022/04/15 04:23:30;;;;;;;11.05;5.65;;;7.40;99.90;;;;;;5114250;28;20046;-78
2022/04/15 04:25:56;;;;;;;10.73;6.03;;;7.40;99.90;;;;;;5115620;28;20044;-78
2022/04/15 04:28:22;;;;;;;8.57;5.07;;;7.40;99.90;;;;;;5115282;28;20045;-79
2022/04/15 04:30:47;;;;;;;10.25;5.85;;;7.50;99.90;;;;;;5115118;28;20107;-78
2022/04/15 04:33:13;;;;;;;9.25;5.40;;;7.50;99.90;;;;;;5113782;28;20044;-80
2022/04/15 04:35:39;;;;;;;9.73;6.05;;;7.50;99.90;;;;;;5115025;28;20462;-79
2022/04/15 04:38:06;;;;;;;13.82;7.03;;;7.50;99.90;;;;;;5114909;28;20050;-77
2022/04/15 04:40:33;;;;;;;9.23;6.28;;;7.50;99.90;;;;;;5114946;28;20044;-76
2022/04/15 04:42:59;;;;;;;11.75;5.78;;;7.50;99.90;;;;;;5114880;28;20062;-79
2022/04/15 04:45:25;;;;;;;11.47;6.70;;;7.50;99.90;;;;;;5115292;28;20052;-78
2022/04/15 04:47:52;;;;;;;16.52;6.45;;;7.50;99.90;;;;;;5114754;28;20043;-78
2022/04/15 04:50:18;;;;;;;13.30;6.32;;;7.50;99.90;;;;;;5114913;28;20043;-78
2022/04/15 04:52:46;;;;;;;12.13;6.40;;;7.50;99.90;;;;;;5114630;28;20079;-77
2022/04/15 04:55:13;;;;;;;12.45;7.15;;;7.50;99.90;;;;;;5114696;28;20508;-77
2022/04/15 04:57:39;;;;;;;11.50;6.57;;;7.50;99.90;;;;;;5115051;28;20093;-79
2022/04/15 05:00:06;;;;;;;15.95;7.05;;;7.50;99.90;;;;;;5113608;28;20744;-79
2022/04/15 05:02:32;;;;;;;9.68;6.60;;;7.50;99.90;;;;;;5113370;28;20432;-77
2022/04/15 05:04:58;;;;;;;13.05;6.65;;;7.50;99.90;;;;;;5114445;28;20056;-80
2022/04/15 05:07:24;;;;;;;8.70;5.70;;;7.50;99.90;;;;;;5113198;28;20050;-79
2022/04/15 05:09:51;;;;;;;10.45;6.35;;;7.50;99.90;;;;;;5114532;28;20410;-79
2022/04/15 05:12:17;;;;;;;10.27;6.22;;;7.60;99.90;;;;;;5113906;28;20163;-78
2022/04/15 05:14:43;;;;;;;14.88;6.88;;;7.60;99.90;;;;;;5113812;28;20143;-77
2022/04/15 05:17:09;;;;;;;12.30;6.53;;;7.60;99.90;;;;;;5114364;28;20051;-78
2022/04/15 05:19:34;;;;;;;11.73;6.50;;;7.60;99.90;;;;;;5114302;28;20050;-80
2022/04/15 05:22:00;;;;;;;11.63;6.28;;;7.60;99.90;;;;;;5114288;28;20035;-79
2022/04/15 05:24:25;;;;;;;9.30;6.25;;;7.60;99.90;;;;;;5114709;28;20184;-77
2022/04/15 05:26:51;;;;;;;15.75;6.45;;;7.70;99.90;;;;;;5114603;28;20475;-79
2022/04/15 05:29:17;;;;;;;10.90;5.95;;;7.70;99.90;;;;;;5114213;28;20471;-79
2022/04/15 05:31:42;;;;;;;12.73;6.53;;;7.70;99.90;;;;;;5114151;28;20042;-80
2022/04/15 05:34:08;;;;;;;11.82;6.65;;;7.70;99.90;;;;;;5114103;28;20061;-78
2022/04/15 05:36:34;;;;;;;13.20;6.78;;;7.70;99.90;;;;;;5114101;28;20048;-77
2022/04/15 05:39:00;;;;;;;10.13;6.75;;;7.70;99.90;;;;;;5114133;28;20044;-80
2022/04/15 05:41:26;;;;;;;10.32;6.35;;;7.70;99.90;;;;;;5114530;28;20040;-77
2022/04/15 05:43:51;;;;;;;9.32;6.40;;;7.60;99.90;;;;;;5114107;28;20455;-78
2022/04/15 05:46:18;;;;;;;14.27;7.68;;;7.70;99.90;;;;;;5114066;28;20040;-77
2022/04/15 05:48:43;;;;;;;;;;;7.60;99.90;;;;;;5114491;28;20083;-78
2022/04/15 05:51:09;;;;;;;11.15;5.97;;;7.60;99.90;;;;;;5113964;28;19926;-78
2022/04/15 05:53:35;;;;;;;11.38;6.15;;;7.70;99.90;;;;;;5114378;28;20040;-79
2022/04/15 05:56:00;;;;;;;9.82;6.05;;;7.70;99.90;;;;;;5114278;28;20534;-78
2022/04/15 05:58:26;;;;;;;11.30;6.35;;;7.70;99.90;;;;;;5113892;28;20392;-78
2022/04/15 06:00:52;;;;;;;7.97;5.57;;;7.70;99.90;;;;;;5113953;28;20093;-78
2022/04/15 06:03:20;;;;;;;9.40;6.38;;;7.70;99.90;;;;;;5113792;28;20047;-78
2022/04/15 06:05:46;;;;;;;8.43;5.45;;;7.70;99.90;;;;;;5113794;28;20047;-78
2022/04/15 06:08:12;;;;;;;9.32;6.18;;;7.70;99.90;;;;;;5113887;28;20050;-77
2022/04/15 06:10:37;;;;;;;9.20;5.32;;;7.70;99.90;;;;;;5112696;28;20047;-77
2022/04/15 06:13:09;;;;;;;10.00;5.85;;;;;;;;;;5113687;28;20065;-78
2022/04/15 06:15:40;;;;;;;7.05;5.32;;;7.80;99.90;;;;;;5113104;28;20051;-78
2022/04/15 06:18:06;;;;;;;6.95;4.55;;;7.90;99.90;;;;;;5113801;28;20487;-77
2022/04/15 06:20:32;;;;;;;7.10;4.20;;;7.90;99.90;;;;;;5113620;28;20039;-78
2022/04/15 06:22:57;;;;;;;5.32;4.10;;;8.00;99.90;;;;;;5112746;28;20067;-79
2022/04/15 06:25:23;;;;;;;7.00;4.40;;;8.00;99.90;;;;;;5113417;28;20495;-78
2022/04/15 06:27:52;;;;;;;6.80;4.22;;;8.00;99.90;;;;;;5117065;28;20046;-78
2022/04/15 06:30:21;;;;;;;7.57;4.60;;;8.00;99.90;;;;;;5117426;28;20367;-77
2022/04/15 06:32:47;;;;;;;7.15;4.60;;;8.00;99.90;;;;;;5117065;28;20517;-79
2022/04/15 06:35:13;;;;;;;10.03;5.03;;;7.90;99.90;;;;;;5117127;28;20047;-78
2022/04/15 06:37:40;;;;;;;10.87;5.17;;;7.90;99.90;;;;;;5117347;28;20368;-79
2022/04/15 06:40:06;;;;;;;6.33;4.67;;;7.90;99.90;;;;;;5116391;28;20047;-78
2022/04/15 06:42:31;;;;;;;6.00;4.40;;;7.90;99.90;;;;;;5117198;28;20432;-79
2022/04/15 06:44:58;;;;;;;12.18;5.20;;;7.90;99.90;;;;;;5117172;28;20130;-79
2022/04/15 06:47:24;;;;;;;;;;;7.90;99.90;;;;;;5117592;28;20411;-77
2022/04/15 06:49:49;;;;;;;6.63;4.57;;;7.90;99.90;;;;;;5116530;28;19919;-79
2022/04/15 06:52:15;;;;;;;6.70;4.30;;;7.80;99.90;;;;;;5116823;28;20114;-78
2022/04/15 06:54:41;;;;;;;5.78;4.68;;;7.80;99.90;;;;;;5116760;28;20052;-78
2022/04/15 06:57:07;;;;;;;7.18;4.45;;;7.90;99.90;;;;;;5117010;28;20040;-78
2022/04/15 06:59:33;;;;;;;8.52;4.60;;;7.80;99.90;;;;;;5117016;28;20096;-79
2022/04/15 07:02:01;;;;;;;6.15;4.40;;;7.80;99.90;;;;;;5116086;28;20052;-78
2022/04/15 07:04:27;;;;;;;7.78;4.72;;;7.80;99.90;;;;;;5116772;28;20108;-78
2022/04/15 07:06:54;;;;;;;7.13;5.18;;;7.80;99.90;;;;;;5117256;28;20096;-79
2022/04/15 07:09:19;;;;;;;7.47;4.78;;;7.80;99.90;;;;;;5116765;28;20047;-78
2022/04/15 07:11:45;;;;;;;6.72;4.60;;;7.80;99.90;;;;;;5116965;28;20108;-79
2022/04/15 07:14:11;;;;;;;8.82;5.30;;;7.80;99.90;;;;;;5116446;27;20092;-79
2022/04/15 07:16:37;;;;;;;7.55;5.43;;;7.80;99.90;;;;;;5116601;28;20440;-77
2022/04/15 07:19:07;;;;;;;9.10;5.50;;;7.80;99.90;;;;;;5116476;28;20048;-78
2022/04/15 07:21:34;;;;;;;8.82;5.93;;;7.80;99.90;;;;;;5117029;28;20047;-77
2022/04/15 07:23:59;;;;;;;9.45;6.10;;;7.80;99.90;;;;;;5116449;28;20391;-78
2022/04/15 07:26:25;;;;;;;9.13;5.50;;;7.80;99.90;;;;;;5116371;28;20039;-79
2022/04/15 07:28:51;;;;;;;10.88;5.50;;;7.80;99.90;;;;;;5116336;28;20126;-79
2022/04/15 07:31:16;;;;;;;9.98;5.55;;;7.80;99.90;;;;;;5116204;28;20044;-80
2022/04/15 07:33:42;;;;;;;9.15;6.40;;;7.80;99.90;;;;;;5116058;28;20036;-77
2022/04/15 07:38:51;;;;;;;12.15;6.45;;;7.80;99.90;;;;;;5115499;28;20157;-77
2022/04/15 07:41:17;;;;;;;8.18;5.80;;;7.80;99.90;;;;;;5116044;28;20086;-78
2022/04/15 07:43:44;;;;;;;9.18;6.00;;;7.90;99.90;;;;;;5116051;28;20043;-79
2022/04/15 07:46:10;;;;;;;9.88;6.43;;;7.90;99.90;;;;;;5115913;28;20445;-79
2022/04/15 07:48:36;;;;;;;10.63;6.40;;;7.80;99.90;;;;;;5115960;28;20039;-78
2022/04/15 07:51:03;;;;;;;13.45;6.65;;;7.90;99.90;;;;;;5115870;28;20051;-79
2022/04/15 07:53:28;;;;;;;12.85;6.82;;;7.90;99.90;;;;;;5115729;28;20047;-78
2022/04/15 07:55:54;;;;;;;13.32;7.47;;;7.90;99.90;;;;;;5115851;28;20537;-78
2022/04/15 07:58:19;;;;;;;10.77;6.93;;;8.00;99.90;;;;;;5115833;28;20076;-79
2022/04/15 08:00:45;;;;;;;10.23;6.25;;;8.00;99.90;;;;;;5115711;28;20048;-79
2022/04/15 08:03:11;;;;;;;14.60;7.35;;;8.10;99.90;;;;;;5116104;28;20044;-79
2022/04/15 08:05:37;;;;;;;13.48;7.38;;;8.10;99.90;;;;;;5115600;28;20086;-78
2022/04/15 08:08:03;;;;;;;12.35;7.20;;;8.20;99.90;;;;;;5115629;28;20082;-78
2022/04/15 08:10:29;;;;;;;12.13;7.28;;;8.20;99.90;;;;;;5115595;28;20058;-80
2022/04/15 08:12:54;;;;;;;10.85;6.70;;;8.30;99.90;;;;;;5115638;28;20101;-80
2022/04/15 08:15:20;;;;;;;14.98;7.43;;;8.30;99.90;;;;;;5115381;28;20044;-79
2022/04/15 08:17:46;;;;;;;18.17;7.63;;;8.30;99.90;;;;;;5115400;28;20047;-79
2022/04/15 08:20:12;;;;;;;12.18;7.32;;;8.40;99.90;;;;;;5115724;28;20046;-79
2022/04/15 08:22:38;;;;;;;11.68;6.93;;;8.40;99.90;;;;;;5115235;28;20051;-80
2022/04/15 08:25:04;;;;;;;14.50;8.25;;;8.50;99.90;;;;;;5115221;28;20048;-79
2022/04/15 08:27:30;;;;;;;20.17;9.73;;;8.50;99.90;;;;;;5115229;28;20432;-80
2022/04/15 08:29:56;;;;;;;13.10;8.23;;;8.50;99.90;;;;;;5115054;28;20035;-80
2022/04/15 08:32:21;;;;;;;17.90;8.27;;;8.60;99.90;;;;;;5113823;28;20055;-80
2022/04/15 08:34:47;;;;;;;14.57;7.72;;;8.60;99.90;;;;;;5114098;28;20100;-80
2022/04/15 08:37:13;;;;;;;18.67;7.88;;;8.60;99.90;;;;;;5114826;28;20090;-79
2022/04/15 08:39:39;;;;;;;12.70;8.15;;;8.70;99.90;;;;;;5114969;28;20036;-79
2022/04/15 08:42:08;;;;;;;12.30;7.30;;;8.70;99.90;;;;;;5115118;27;20138;-80
2022/04/15 08:44:33;;;;;;;15.30;7.53;;;8.80;99.90;;;;;;5114764;28;20679;-80
2022/04/15 08:47:02;;;;;;;19.33;8.38;;;8.70;99.90;;;;;;5114268;28;20043;-79
2022/04/15 08:49:29;;;;;;;14.27;8.63;;;8.70;99.90;;;;;;5114190;28;20054;-79
2022/04/15 08:51:54;;;;;;;;;;;8.80;99.90;;;;;;5115030;28;20082;-80
2022/04/15 08:54:20;;;;;;;15.98;7.82;;;8.80;99.90;;;;;;5114625;28;19967;-79
2022/04/15 08:56:46;;;;;;;16.05;7.75;;;8.70;99.90;;;;;;5114762;28;20043;-78
2022/04/15 08:59:12;;;;;;;15.27;8.25;;;8.70;99.90;;;;;;5114698;28;20040;-78
2022/04/15 09:01:37;;;;;;;14.35;8.50;;;8.80;99.90;;;;;;5114473;28;20495;-78
2022/04/15 09:04:03;;;;;;;17.95;8.85;;;8.80;99.90;;;;;;5114557;28;20035;-79
2022/04/15 09:06:33;;;;;;;14.60;8.88;;;8.90;99.90;;;;;;5114389;28;20044;-79
2022/04/15 09:09:00;;;;;;;15.75;8.75;;;8.90;99.90;;;;;;5113818;28;20051;-79
2022/04/15 09:11:37;;;;;;;17.30;8.18;;;9.00;99.90;;;;;;5114460;28;20091;-79
2022/04/15 09:14:13;;;;;;;15.98;7.88;;;9.10;99.90;;;;;;5114385;28;20059;-79
2022/04/15 09:16:40;;;;;;;18.05;7.93;;;9.20;99.90;;;;;;5114218;28;20043;-78
2022/04/15 09:19:07;;;;;;;;;;;9.30;99.90;;;;;;5114709;28;20119;-78
2022/04/15 09:21:33;;;;;;;15.30;7.25;;;9.30;99.90;;;;;;5114109;28;19920;-80
2022/04/15 09:23:58;;;;;;;13.93;7.93;;;9.40;99.90;;;;;;5114295;28;20422;-80
2022/04/15 09:26:25;;;;;;;11.35;7.00;;;9.40;99.90;;;;;;5114176;28;20044;-78
2022/04/15 09:28:53;;;;;;;16.77;8.05;;;9.50;99.90;;;;;;5114251;28;20058;-80
2022/04/15 09:31:20;;;;;;;14.65;7.07;;;9.50;99.90;;;;;;5114128;28;20040;-80
2022/04/15 09:33:56;;;;;;;10.27;6.20;;;9.50;99.90;;;;;;5114042;28;20053;-79
2022/04/15 09:36:26;;;;;;;10.70;6.80;;;9.70;99.90;;;;;;5114052;28;20052;-79
2022/04/15 09:39:01;;;;;;;15.00;8.05;;;9.60;99.90;;;;;;5114026;28;20044;-80
2022/04/15 09:41:29;;;;;;;12.88;6.80;;;9.70;99.90;;;;;;5114150;28;20039;-79
2022/04/15 09:43:55;;;;;;;8.13;6.03;;;9.70;99.90;;;;;;5114054;28;20043;-80
2022/04/15 09:46:22;;;;;;;13.52;5.80;;;9.80;99.90;;;;;;5112778;28;20100;-80
2022/04/15 09:49:05;;;;;;;7.55;5.32;;;9.80;99.90;;;;;;5113955;28;20068;-80
2022/04/15 09:51:35;;;;;;;9.35;5.20;;;9.90;99.90;;;;;;5113975;28;20039;-79
2022/04/15 09:54:10;;;;;;;8.98;5.25;;;10.00;99.90;;;;;;5114178;28;20039;-79
2022/04/15 09:56:39;;;;;;;8.82;5.53;;;10.10;99.90;;;;;;5113464;28;20051;-81
2022/04/15 09:59:11;;;;;;;9.80;5.53;;;10.20;99.90;;;;;;5113903;28;20047;-79
2022/04/15 10:01:41;;;;;;;11.50;5.15;;;10.40;99.90;;;;;;5114582;28;20048;-79
2022/04/15 10:04:10;;;;;;;6.97;4.93;;;10.50;99.90;;;;;;5117880;28;20073;-79
2022/04/15 10:06:37;;;;;;;8.95;5.07;;;10.60;99.90;;;;;;5117200;28;20048;-79
2022/04/15 10:09:03;;;;;;;9.10;5.05;;;10.50;99.90;;;;;;5117736;28;20483;-80
2022/04/15 10:11:35;;;;;;;11.37;5.10;;;10.60;99.90;;;;;;5117836;28;20486;-79
2022/04/15 10:14:02;;;;;;;11.63;5.05;;;10.70;99.90;;;;;;5117751;28;20298;-78
2022/04/15 10:16:30;;;;;;;8.82;5.50;;;10.70;99.90;;;;;;5117886;27;20047;-80
2022/04/15 10:19:00;;;;;;;8.57;4.70;;;10.70;99.90;;;;;;5118001;28;20051;-79
2022/04/15 10:21:26;;;;;;;8.57;5.15;;;10.70;99.90;;;;;;5116761;28;20047;-79
2022/04/15 10:23:52;;;;;;;11.00;4.78;;;10.70;99.90;;;;;;5117682;28;20403;-79
2022/04/15 10:26:19;;;;;;;6.30;4.32;;;10.70;99.90;;;;;;5117876;28;20047;-78
2022/04/15 10:28:47;;;;;;;15.73;5.40;;;10.70;99.90;;;;;;5117517;28;20047;-79
2022/04/15 10:31:16;;;;;;;7.93;4.50;;;10.80;99.90;;;;;;5117390;28;20518;-81
2022/04/15 10:33:43;;;;;;;10.43;4.60;;;10.90;99.90;;;;;;5117049;28;20550;-80
2022/04/15 10:36:23;;;;;;;9.82;4.65;;;10.90;99.90;;;;;;5117417;28;20398;-79
2022/04/15 10:39:03;;;;;;;9.45;5.03;;;11.00;99.90;;;;;;5117368;28;20465;-80
2022/04/15 10:41:49;;;;;;;9.63;5.13;;;10.90;99.90;;;;;;5117169;28;20127;-80
2022/04/15 10:44:24;;;;;;;8.82;4.60;;;10.90;99.90;;;;;;5117241;28;20048;-80
2022/04/15 10:46:50;;;;;;;7.57;4.65;;;10.90;99.90;;;;;;5117109;28;20043;-78
2022/04/15 10:49:26;;;;;;;9.13;4.85;;;11.00;99.90;;;;;;5117036;28;20048;-78
2022/04/15 10:51:57;;;;;;;8.05;4.60;;;11.10;99.90;;;;;;5117230;28;20051;-79
2022/04/15 10:54:35;;;;;;;7.30;4.00;;;11.10;99.90;;;;;;5116618;28;20498;-79
2022/04/15 10:57:02;;;;;;;11.63;5.00;;;11.20;99.90;;;;;;5116950;28;20050;-78
2022/04/15 11:02:21;;;;;;;8.25;4.85;;;11.40;99.90;;;;;;5116662;28;20051;-80
2022/04/15 11:04:52;;;;;;;7.05;4.53;;;11.50;99.90;;;;;;5116799;28;20050;-80
2022/04/15 11:07:28;;;;;;;9.43;5.28;;;11.50;99.90;;;;;;5117265;28;20100;-79
2022/04/15 11:09:55;;;;;;;8.18;4.72;;;11.60;99.90;;;;;;5116608;28;20493;-79
2022/04/15 11:12:35;;;;;;;11.98;4.07;;;11.70;99.90;;;;;;5116322;28;20062;-78
2022/04/15 11:15:02;;;;;;;6.35;4.75;;;11.80;99.90;;;;;;5116453;28;20054;-81
2022/04/15 11:17:52;;;;;;;10.48;4.82;;;11.80;99.90;;;;;;5116542;28;20043;-80
2022/04/15 11:20:17;;;;;;;10.07;4.88;;;11.70;99.90;;;;;;5116507;28;20447;-79
2022/04/15 11:22:44;;;;;;;9.38;4.63;;;11.70;99.90;;;;;;5116556;28;20032;-80
2022/04/15 11:25:11;;;;;;;7.97;4.70;;;11.90;99.90;;;;;;5116540;28;20065;-79
2022/04/15 11:27:39;;;;;;;9.52;3.97;;;11.80;99.90;;;;;;5116292;28;20049;-79
2022/04/15 11:30:15;;;;;;;8.13;4.80;;;11.70;99.90;;;;;;5115833;28;20043;-80
2022/04/15 11:32:51;;;;;;;12.30;5.38;;;11.70;99.90;;;;;;5116227;28;20489;-79
2022/04/15 11:35:31;;;;;;;9.98;5.10;;;11.70;99.90;;;;;;5115662;28;20036;-81
2022/04/15 11:38:05;;;;;;;8.90;4.40;;;11.60;99.90;;;;;;5116121;28;20357;-80
2022/04/15 11:40:36;;;;;;;8.68;4.85;;;11.60;99.90;;;;;;5116189;27;20078;-78
2022/04/15 11:43:06;;;;;;;6.53;5.05;;;11.60;99.90;;;;;;5115412;28;20113;-80
2022/04/15 11:45:37;;;;;;;6.60;4.53;;;11.50;99.90;;;;;;5114884;28;20052;-80
2022/04/15 11:48:26;;;;;;;8.07;4.15;;;11.40;99.90;;;;;;5116074;28;20101;-80
2022/04/15 11:50:53;;;;;;;8.63;4.57;;;11.50;99.90;;;;;;5115912;28;20044;-79
2022/04/15 11:53:20;;;;;;;6.20;4.30;;;11.50;99.90;;;;;;5115813;28;20043;-78
2022/04/15 11:55:54;;;;;;;7.50;4.53;;;11.60;99.90;;;;;;5115403;28;20433;-80
2022/04/15 11:58:22;;;;;;;10.43;4.65;;;11.80;99.90;;;;;;5115797;28;20040;-80
2022/04/15 12:00:56;;;;;;;7.35;4.25;;;11.90;99.90;;;;;;5115735;28;20055;-80
2022/04/15 12:03:23;;;;;;;6.55;4.53;;;12.00;99.90;;;;;;5115656;28;20054;-79
2022/04/15 12:05:50;;;;;;;8.27;4.18;;;12.00;99.90;;;;;;5115661;28;20039;-80
2022/04/15 12:08:16;;;;;;;;;;;12.00;99.90;;;;;;5116658;28;20126;-81
2022/04/15 12:10:42;;;;;;;10.88;4.60;;;12.10;99.90;;;;;;5115525;28;19920;-79
2022/04/15 12:13:08;;;;;;;7.00;4.07;;;12.10;99.90;;;;;;5115529;28;20096;-81
2022/04/15 12:15:34;;;;;;;9.80;5.07;;;12.00;99.90;;;;;;5115436;28;20051;-79
2022/04/15 12:18:02;;;;;;;7.80;5.13;;;11.90;99.90;;;;;;5115333;28;20039;-78
2022/04/15 12:20:29;;;;;;;7.70;4.85;;;11.70;99.90;;;;;;5114637;28;20165;-78
2022/04/15 12:22:56;;;;;;;8.23;4.90;;;11.70;99.90;;;;;;5115644;28;20050;-77
2022/04/15 12:25:22;;;;;;;8.95;5.38;;;11.80;99.90;;;;;;5114574;28;20047;-78
2022/04/15 12:27:48;;;;;;;8.33;5.33;;;11.80;99.90;;;;;;5115383;28;20059;-78
2022/04/15 12:30:33;;;;;;;8.93;5.20;;;11.80;99.90;;;;;;5115172;28;20054;-80
2022/04/15 12:33:10;;;;;;;7.30;5.20;;;11.80;99.90;;;;;;5115107;28;20043;-80
2022/04/15 12:35:55;;;;;;;8.65;4.75;;;11.70;99.90;;;;;;5115198;28;20043;-80
2022/04/15 12:38:20;;;;;;;10.43;5.28;;;11.70;99.90;;;;;;5115099;28;20039;-79
2022/04/15 12:40:46;;;;;;;7.57;4.97;;;11.70;99.90;;;;;;5114923;28;20044;-78
2022/04/15 12:43:12;;;;;;;11.27;4.80;;;11.60;99.90;;;;;;5114498;28;20055;-78
2022/04/15 12:45:48;;;;;;;6.88;4.60;;;11.60;99.90;;;;;;5114878;28;20054;-77
2022/04/15 12:48:14;;;;;;;7.78;4.38;;;11.50;99.90;;;;;;5114859;28;20360;-79
2022/04/15 12:50:44;;;;;;;8.32;4.82;;;11.60;99.90;;;;;;5114536;28;20075;-77
2022/04/15 12:53:21;;;;;;;8.50;4.53;;;11.60;99.90;;;;;;5114738;28;20039;-78
2022/04/15 12:55:48;;;;;;;11.48;5.15;;;11.60;99.90;;;;;;5114066;28;20607;-76
2022/04/15 12:58:25;;;;;;;8.82;4.72;;;11.60;99.90;;;;;;5113446;28;20099;-78